Weather observations for the past three days for
Fort Smith Regional Airport
Imperial (Metric)
Date Time (cdt) Wind (mph) Vis. (mi.) Weather Sky Cond. Temperature (ºF) Relative Humidity Wind Chill (°F) Heat Index (°F) Pressure Precipitation (in)
Air Dwpt 6 hour altimeter (in) sea level (mb) 1 hr 3 hr 6 hr
Max. Min.
03 08:53 SE 5 10.00 Fair CLR 84.9 72 65% 91 30 1015.3
03 07:53 SE 6 10.00 Fair CLR 80.1 71.1 74% 84 30 1015.3
03 06:53 Calm 10.00 Fair CLR 78.1 70 84 78.1 76% 80 29.99 1014.9
03 05:53 Calm 10.00 Fair CLR 79 71.1 77% 82 29.98 1014.4
03 04:53 E 3 10.00 Fair CLR 79 71.1 77% 82 29.97 1014.0
03 03:53 Calm 10.00 Fair CLR 81 70 69% 84 29.96 1013.9
03 02:53 NE 3 10.00 Fair CLR 81 71.1 72% 85 29.96 1013.6
03 01:53 E 3 10.00 Fair CLR 82 69.1 65% 85 29.96 1013.6
03 00:53 Calm 10.00 Fair CLR 82.9 66.9 100 81 59% 86 29.95 1013.6
02 23:53 Calm 10.00 Fair CLR 87.1 66.9 51% 90 29.95 1013.4
02 22:53 SE 5 10.00 Fair CLR 89.1 64.9 45% 91 29.94 1013.2
02 21:53 SE 6 10.00 Fair CLR 91.9 64.9 41% 94 29.94 1013.1
02 20:53 SE 6 10.00 Fair CLR 93.9 64 37% 96 29.91 1012.3
02 19:53 SE 6 10.00 Fair CLR 97 63 33% 99 29.89 1011.5
02 18:53 SE 7 10.00 A Few Clouds FEW090 100 63 104 98.1 30% 102 29.88 1011.2
02 17:53 E 14 G 21 10.00 Fair CLR 102 63 28% 104 29.88 1011.1
02 16:53 E 10 10.00 Mostly Cloudy SCT100 BKN120 102 64 29% 105 29.89 1011.6
02 15:53 E 12 G 18 10.00 Partly Cloudy SCT085 104 64 27% 108 29.91 1012.0
02 14:53 S 10 10.00 Fair CLR 102 64 29% 105 29.93 1012.9
02 13:53 SE 5 10.00 Partly Cloudy FEW070 SCT110 98.1 64.9 34% 101 29.96 1014.0
02 12:53 E 7 10.00 A Few Clouds FEW065 99 66.9 99 75 35% 104 30 1015.0
02 11:53 Calm 10.00 Fair CLR 97 68 39% 102 30.02 1015.9
02 10:53 Vrbl 6 10.00 Fair CLR 95 70 44% 101 30.04 1016.5
02 09:53 NE 6 10.00 Fair CLR 91 71.1 52% 98 30.04 1016.6
02 08:53 Calm 10.00 Fair CLR 84.9 71.1 63% 90 30.05 1016.7
02 07:53 NE 6 10.00 Fair CLR 80.1 72 76% 84 30.05 1016.7
02 06:53 NE 3 10.00 Fair CLR 75 71.1 84 75 88% 75 30.03 1016.0
02 05:53 Calm 10.00 Fair CLR 77 71.1 82% 79 30.02 1015.8
02 04:53 NE 5 10.00 Fair CLR 79 72 79% 82 30.01 1015.5
02 03:53 NE 3 10.00 Fair CLR 81 71.1 72% 85 30 1015.3
02 02:53 Calm 10.00 Fair CLR 82.9 70 65% 87 30 1015.3
02 01:53 NE 6 10.00 Fair CLR 82 69.1 65% 85 30 1015.3
02 00:53 NE 3 10.00 Partly Cloudy SCT090 82.9 69.1 100.9 82 63% 87 30 1015.2
01 23:53 Calm 10.00 Fair CLR 86 66 51% 88 29.99 1014.8
01 22:53 E 5 10.00 Fair CLR 87.1 66 50% 89 29.98 1014.5
01 21:53 SE 7 10.00 Fair CLR 93 64 38% 95 29.96 1013.7
01 20:53 SE 7 10.00 A Few Clouds FEW110 95 64 36% 97 29.93 1012.9
01 19:53 E 6 10.00 Mostly Cloudy BKN090 95 66 39% 98 29.91 1012.2
01 18:53 SE 6 10.00 Fair CLR 100.9 62.1 105.1 98.1 28% 103 29.92 1012.4
01 17:53 SE 8 10.00 Mostly Cloudy BKN090 BKN110 102 63 28% 104 29.93 1012.6
01 16:53 E 10 10.00 Mostly Cloudy SCT100 BKN120 104 62.1 25% 106 29.93 1012.7
01 15:53 N 6 10.00 Fair CLR 102 63 28% 104 29.94 1013.1
01 14:53 Vrbl 6 10.00 Overcast OVC085 102.9 64.9 29% 107 29.96 1013.9
01 13:53 NW 6 10.00 Mostly Cloudy SCT080 BKN100 99 66 34% 103 29.99 1014.8
01 12:53 E 9 10.00 Fair CLR 100 66 100 77 33% 104 30.02 1015.8
01 11:53 NW 7 10.00 Fair CLR 97 66.9 37% 101 30.05 1016.9
01 10:53 Calm 10.00 Fair CLR 95 69.1 43% 101 30.07 1017.4
01 09:53 Calm 10.00 Fair CLR 90 70 52% 95 30.07 1017.6
01 08:53 NE 5 10.00 Fair CLR 84 71.1 65% 89 30.08 1017.7
01 07:53 E 3 10.00 Fair CLR 79 71.1 77% 82 30.07 1017.4
01 06:53 NE 5 10.00 Fair CLR 77 70 82.9 75.9 79% 79 30.05 1016.8
01 05:53 NE 3 10.00 A Few Clouds FEW100 78.1 70 76% 80 30.04 1016.6
01 04:53 E 3 10.00 Fair CLR 79 69.1 72% 82 30.03 1016.2
01 03:53 NE 5 10.00 Fair CLR 80.1 68 67% 83 30.02 1016.0
01 02:53 N 3 10.00 A Few Clouds FEW095 82 68 63% 85 30.02 1015.9
01 01:53 E 6 10.00 Fair CLR 81 66.9 62% 83 30.02 1015.7
01 00:53 NE 7 10.00 A Few Clouds FEW085 82 66 99 81 58% 84 30.01 1015.4
31 23:53 NE 5 10.00 Fair CLR 84 66.9 57% 87 30 1015.1
31 22:53 E 3 10.00 Fair CLR 88 64 45% 89 29.99 1014.8
31 21:53 E 7 10.00 Fair CLR 91 64 41% 93 29.98 1014.4
31 20:53 E 8 10.00 Fair CLR 91.9 59 33% 91 29.95 1013.5
31 18:53 E 14 G 21 10.00 Fair CLR 99 59 105.1 99 27% 99 29.92 1012.5
31 17:53 E 10 10.00 A Few Clouds FEW110 102 60.1 25% 103 29.93 1012.7
31 16:53 Vrbl 3 10.00 Partly Cloudy SCT110 100.9 61 27% 102 29.93 1012.9
31 15:53 SE 8 G 37 10.00 Partly Cloudy SCT100 102.9 61 25% 104 29.95 1013.5
31 14:53 NE 7 10.00 A Few Clouds FEW090 100.9 62.1 28% 103 29.97 1014.2
31 13:53 Calm 10.00 Partly Cloudy SCT100 100 64 31% 103 30 1015.0
31 12:53 Calm 10.00 Fair CLR 99 64 99 75.9 32% 102 30.03 1016.1
31 11:53 NW 5 10.00 Fair CLR 98.1 66 35% 102 30.05 1016.8
31 10:53 NE 3 10.00 A Few Clouds FEW100 93.9 66 40% 97 30.05 1017.0
31 09:53 E 6 10.00 A Few Clouds FEW095 89.1 66.9 48% 92 30.05 1016.9
Date Time (cdt) Wind (mph) Vis. (mi.) Weather Sky Cond. Air Dwpt Max. Min. Relative Humidity Wind Chill (°F) Heat Index (°F) altimeter (in) sea level (mb) 1 hr 3 hr 6 hr
6 hour
Temperature (ºF) Pressure Precipitation (in)